Time;durP1;ratioP1;P1;durP2;ratioP2;P2;SDS_P1;SDS_P2;PMS_P1;PMS_P2;Temp;Humidity;BMP_temperature;BMP_pressure;BME280_temperature;BME280_humidity;BME280_pressure;Samples;Min_cycle;Max_cycle;Signal;HPM_P1;HPM_P2
2023/08/16 00:00:55;;;;;;;0.85;0.85;;;15.20;99.90;;;;;;4965849;28;20166;-88
2023/08/16 00:03:21;;;;;;;1.00;1.00;;;15.30;99.90;;;;;;4963717;28;20049;-88
2023/08/16 00:05:46;;;;;;;0.90;0.90;;;15.10;99.90;;;;;;4959454;28;20046;-89
2023/08/16 00:08:12;;;;;;;0.82;0.82;;;15.10;99.90;;;;;;4975526;28;20055;-87
2023/08/16 00:10:38;;;;;;;0.80;0.80;;;15.20;99.90;;;;;;4961710;28;20073;-86
2023/08/16 00:13:04;;;;;;;0.95;0.95;;;15.30;99.90;;;;;;4973352;28;20113;-86
2023/08/16 00:15:30;;;;;;;0.82;0.82;;;15.20;99.90;;;;;;4977819;28;20042;-86
2023/08/16 00:17:55;;;;;;;0.80;0.80;;;14.90;99.90;;;;;;4962726;28;20054;-86
2023/08/16 00:20:21;;;;;;;0.88;0.88;;;14.90;99.90;;;;;;4953870;28;20400;-86
2023/08/16 00:22:50;;;;;;;0.80;0.80;;;14.80;99.90;;;;;;4969628;28;20046;-86
2023/08/16 00:25:15;;;;;;;0.88;0.88;;;14.70;99.90;;;;;;4956853;28;20046;-86
2023/08/16 00:27:41;;;;;;;0.70;0.70;;;14.70;99.90;;;;;;4946291;28;20045;-87
2023/08/16 00:30:08;;;;;;;0.80;0.80;;;14.60;99.90;;;;;;4961974;28;20046;-87
2023/08/16 00:32:34;;;;;;;0.75;0.75;;;14.80;99.90;;;;;;4971895;28;20050;-86
2023/08/16 00:35:00;;;;;;;0.80;0.80;;;14.70;99.90;;;;;;4958819;28;20057;-86
2023/08/16 00:37:26;;;;;;;0.70;0.70;;;14.80;99.90;;;;;;4971265;28;20038;-86
2023/08/16 00:39:52;;;;;;;0.70;0.70;;;14.80;99.90;;;;;;4959681;28;20404;-87
2023/08/16 00:42:17;;;;;;;0.70;0.70;;;14.70;99.90;;;;;;4974006;28;20035;-87
2023/08/16 00:44:43;;;;;;;0.70;0.70;;;14.70;99.90;;;;;;4960394;28;20051;-87
2023/08/16 00:47:09;;;;;;;0.60;0.60;;;14.90;99.90;;;;;;4973101;28;20042;-87
2023/08/16 00:49:37;;;;;;;0.70;0.70;;;14.90;99.90;;;;;;4960894;28;20042;-87
2023/08/16 00:52:03;;;;;;;0.60;0.60;;;14.90;99.90;;;;;;4976671;28;20050;-86
2023/08/16 00:54:30;;;;;;;0.73;0.73;;;15.00;99.90;;;;;;4958308;28;20047;-87
2023/08/16 00:56:58;;;;;;;0.70;0.70;;;14.70;99.90;;;;;;4957842;28;20078;-87
2023/08/16 00:59:26;;;;;;;0.75;0.75;;;14.90;99.90;;;;;;4961631;28;20121;-87
2023/08/16 01:01:51;;;;;;;0.70;0.70;;;14.90;99.90;;;;;;4999396;28;20292;-86
2023/08/16 01:04:21;;;;;;;0.65;0.65;;;14.80;99.90;;;;;;4975161;28;20492;-87
2023/08/16 01:06:47;;;;;;;0.60;0.60;;;14.80;99.90;;;;;;4977033;28;20073;-86
2023/08/16 01:09:13;;;;;;;0.60;0.60;;;14.80;99.90;;;;;;4956950;28;20046;-86
2023/08/16 01:11:49;;;;;;;0.63;0.63;;;14.80;99.90;;;;;;4949583;28;20078;-87
2023/08/16 01:14:50;;;;;;;0.73;0.73;;;14.80;99.90;;;;;;4976616;28;20046;-86
2023/08/16 01:17:20;;;;;;;0.70;0.70;;;14.80;99.90;;;;;;4931986;28;20059;-87
2023/08/16 01:19:47;;;;;;;0.70;0.70;;;14.80;99.90;;;;;;4999827;28;20104;-87
2023/08/16 01:22:26;;;;;;;0.73;0.73;;;14.70;99.90;;;;;;4975508;28;20109;-87
2023/08/16 01:25:08;;;;;;;0.75;0.75;;;14.70;99.90;;;;;;4982470;28;20453;-88
2023/08/16 01:27:34;;;;;;;0.70;0.70;;;14.70;99.90;;;;;;4963883;28;20038;-88
2023/08/16 01:30:05;;;;;;;0.68;0.68;;;14.60;99.90;;;;;;4970682;28;20436;-92
2023/08/16 01:32:31;;;;;;;0.70;0.70;;;14.70;99.90;;;;;;4971343;28;20450;-90
2023/08/16 01:34:58;;;;;;;0.70;0.70;;;14.50;99.90;;;;;;4964383;28;20046;-88
2023/08/16 01:37:24;;;;;;;0.75;0.75;;;14.50;99.90;;;;;;4982691;28;20046;-93
2023/08/16 01:39:51;;;;;;;0.80;0.80;;;14.60;99.90;;;;;;4963601;28;20073;-89
2023/08/16 01:42:17;;;;;;;0.80;0.80;;;14.70;99.90;;;;;;4970018;28;20038;-90
2023/08/16 01:44:51;;;;;;;0.80;0.80;;;14.60;99.90;;;;;;4965999;28;20053;-88
2023/08/16 01:47:17;;;;;;;0.80;0.80;;;14.60;99.90;;;;;;4969250;28;20105;-87
2023/08/16 01:49:44;;;;;;;0.80;0.80;;;14.50;99.90;;;;;;4984730;28;20038;-88
2023/08/16 01:52:10;;;;;;;0.80;0.80;;;14.70;99.90;;;;;;4961651;28;20134;-88
2023/08/16 01:54:35;;;;;;;0.80;0.80;;;14.40;99.90;;;;;;4965179;28;20452;-88
2023/08/16 01:57:01;;;;;;;0.90;0.90;;;14.30;99.90;;;;;;4981504;28;20105;-87
2023/08/16 01:59:27;;;;;;;0.90;0.90;;;14.40;99.90;;;;;;4982277;28;20463;-87
2023/08/16 02:01:52;;;;;;;0.90;0.90;;;14.20;99.90;;;;;;4982054;28;20046;-87
2023/08/16 02:04:21;;;;;;;0.90;0.90;;;14.10;99.90;;;;;;4964585;28;20042;-88
2023/08/16 02:06:47;;;;;;;0.90;0.90;;;14.10;99.90;;;;;;4976264;28;20047;-86
2023/08/16 02:09:12;;;;;;;0.90;0.90;;;14.10;99.90;;;;;;4978128;28;20051;-87
2023/08/16 02:11:38;;;;;;;1.00;1.00;;;14.00;99.90;;;;;;4980153;28;20089;-88
2023/08/16 02:14:03;;;;;;;1.00;1.00;;;14.00;99.90;;;;;;4979954;28;20129;-88
2023/08/16 02:16:29;;;;;;;1.00;1.00;;;14.00;99.90;;;;;;4965645;28;20138;-87
2023/08/16 02:18:55;;;;;;;1.00;1.00;;;14.00;99.90;;;;;;4978860;28;20459;-87
2023/08/16 02:21:22;;;;;;;0.90;0.90;;;13.90;99.90;;;;;;4983977;28;20046;-87
2023/08/16 02:23:52;;;;;;;0.90;0.90;;;14.00;99.90;;;;;;4976609;28;20393;-87
2023/08/16 02:26:22;;;;;;;0.88;0.88;;;13.90;99.90;;;;;;4981593;28;20116;-87
2023/08/16 02:28:51;;;;;;;0.88;0.88;;;14.00;99.90;;;;;;4961843;28;20065;-87
2023/08/16 02:31:17;;;;;;;1.00;1.00;;;13.90;99.90;;;;;;4982474;28;20121;-87
2023/08/16 02:33:43;;;;;;;0.93;0.93;;;14.00;99.90;;;;;;4963789;28;20193;-87
2023/08/16 02:36:09;;;;;;;1.00;1.00;;;13.80;99.90;;;;;;4980320;28;20563;-86
2023/08/16 02:38:34;;;;;;;0.95;0.95;;;13.70;99.90;;;;;;4982708;28;20050;-87
2023/08/16 02:41:00;;;;;;;1.00;1.00;;;13.80;99.90;;;;;;4960979;28;20080;-86
2023/08/16 02:43:26;;;;;;;1.00;1.00;;;13.80;99.90;;;;;;4982971;28;20053;-87
2023/08/16 02:45:53;;;;;;;1.00;1.00;;;13.80;99.90;;;;;;4978163;28;20527;-85
2023/08/16 02:48:19;;;;;;;1.00;1.00;;;13.80;99.90;;;;;;4978596;28;20056;-86
2023/08/16 02:50:45;;;;;;;1.00;1.00;;;13.70;99.90;;;;;;4978161;28;20051;-84
2023/08/16 02:53:10;;;;;;;1.00;1.00;;;13.80;99.90;;;;;;4963548;28;20128;-86
2023/08/16 02:55:36;;;;;;;0.98;0.98;;;13.60;99.90;;;;;;4980115;28;20107;-86
2023/08/16 02:58:02;;;;;;;1.00;1.00;;;13.60;99.90;;;;;;4970886;28;20058;-87
2023/08/16 03:00:29;;;;;;;1.00;1.00;;;13.40;99.90;;;;;;4979867;28;20050;-85
2023/08/16 03:02:55;;;;;;;1.00;1.00;;;13.40;99.90;;;;;;4979076;28;20805;-87
2023/08/16 03:05:21;;;;;;;1.00;1.00;;;13.50;99.90;;;;;;4966256;28;20087;-87
2023/08/16 03:07:47;;;;;;;0.95;0.95;;;13.60;99.90;;;;;;4963932;28;20050;-88
2023/08/16 03:10:12;;;;;;;1.00;1.00;;;13.60;99.90;;;;;;4960826;28;20054;-86
2023/08/16 03:12:38;;;;;;;1.10;1.10;;;13.50;99.90;;;;;;4999069;28;20046;-86
2023/08/16 03:15:04;;;;;;;1.00;1.00;;;13.50;99.90;;;;;;4980237;28;20096;-87
2023/08/16 03:17:30;;;;;;;1.00;1.00;;;13.40;99.90;;;;;;4975180;28;20043;-87
2023/08/16 03:19:55;;;;;;;1.00;1.00;;;13.40;99.90;;;;;;4957405;28;20096;-87
2023/08/16 03:22:21;;;;;;;1.00;1.00;;;13.40;99.90;;;;;;4965039;28;20050;-87
2023/08/16 03:24:51;;;;;;;1.10;1.10;;;13.50;99.90;;;;;;4964082;28;20609;-86
2023/08/16 03:27:16;;;;;;;1.00;1.00;;;13.40;99.90;;;;;;4947894;28;20077;-86
2023/08/16 03:29:42;;;;;;;1.00;1.00;;;13.50;99.90;;;;;;4966765;28;20464;-85
2023/08/16 03:32:08;;;;;;;1.00;1.00;;;13.60;99.90;;;;;;4980804;28;20054;-85
2023/08/16 03:34:34;;;;;;;1.00;1.00;;;13.50;99.90;;;;;;4978845;28;20069;-85
2023/08/16 03:36:59;;;;;;;1.00;1.00;;;13.40;99.90;;;;;;4975188;28;20134;-85
2023/08/16 03:39:25;;;;;;;1.00;1.00;;;13.40;99.90;;;;;;4962074;28;20042;-85
2023/08/16 03:41:51;;;;;;;1.00;1.00;;;13.30;99.90;;;;;;4962398;28;20226;-86
2023/08/16 03:44:16;;;;;;;1.00;1.00;;;13.50;99.90;;;;;;4980294;28;20038;-86
2023/08/16 03:46:42;;;;;;;0.98;0.98;;;13.40;99.90;;;;;;4974498;28;20050;-86
2023/08/16 03:49:08;;;;;;;1.00;1.00;;;13.40;99.90;;;;;;4960130;28;20054;-84
2023/08/16 03:51:35;;;;;;;1.00;1.00;;;13.40;99.90;;;;;;4983692;28;20055;-85
2023/08/16 03:54:01;;;;;;;1.10;1.10;;;13.40;99.90;;;;;;4974948;28;20054;-84
2023/08/16 03:56:28;;;;;;;1.10;1.10;;;13.30;99.90;;;;;;4977853;28;20292;-84
2023/08/16 03:58:53;;;;;;;1.10;1.10;;;13.20;99.90;;;;;;4975881;28;20055;-84
2023/08/16 04:01:19;;;;;;;1.10;1.10;;;13.40;99.90;;;;;;4979603;28;20050;-84
2023/08/16 04:03:46;;;;;;;1.10;1.10;;;13.40;99.90;;;;;;4978430;28;20108;-85
2023/08/16 04:06:12;;;;;;;1.10;1.10;;;13.20;99.90;;;;;;4955542;28;20039;-84
2023/08/16 04:08:41;;;;;;;1.20;1.20;;;13.20;99.90;;;;;;4977727;28;20056;-84
2023/08/16 04:11:07;;;;;;;1.20;1.20;;;13.20;99.90;;;;;;4974559;28;20475;-84
2023/08/16 04:13:33;;;;;;;1.15;1.15;;;13.10;99.90;;;;;;4978376;28;20049;-85
2023/08/16 04:15:59;;;;;;;1.48;1.40;;;13.10;99.90;;;;;;4961546;28;20168;-84
2023/08/16 04:18:28;;;;;;;1.45;1.40;;;13.10;99.90;;;;;;4976080;28;20427;-84
2023/08/16 04:20:54;;;;;;;1.60;1.50;;;13.10;99.90;;;;;;4977062;28;20062;-84
2023/08/16 04:23:21;;;;;;;1.60;1.50;;;13.00;99.90;;;;;;4981214;28;20142;-84
2023/08/16 04:25:47;;;;;;;1.60;1.50;;;13.10;99.90;;;;;;4974941;28;20038;-84
2023/08/16 04:28:13;;;;;;;1.50;1.40;;;13.30;99.90;;;;;;4963641;28;20061;-81
2023/08/16 04:30:38;;;;;;;1.70;1.60;;;13.30;99.90;;;;;;4981728;28;20050;-86
2023/08/16 04:33:04;;;;;;;1.70;1.60;;;13.30;99.90;;;;;;4980946;28;20116;-85
2023/08/16 04:35:32;;;;;;;1.60;1.50;;;13.40;99.90;;;;;;4976195;28;20043;-85
2023/08/16 04:38:01;;;;;;;1.60;1.50;;;13.30;99.90;;;;;;4960243;28;20040;-84
2023/08/16 04:40:27;;;;;;;1.60;1.50;;;13.40;99.90;;;;;;4978437;28;20046;-84
2023/08/16 04:42:52;;;;;;;1.60;1.50;;;13.30;99.90;;;;;;4977537;28;20496;-85
2023/08/16 04:45:18;;;;;;;1.48;1.40;;;13.60;99.90;;;;;;4976144;28;20527;-85
2023/08/16 04:47:46;;;;;;;1.60;1.50;;;13.60;99.90;;;;;;4963627;28;20134;-85
2023/08/16 04:50:12;;;;;;;1.60;1.50;;;13.60;99.90;;;;;;4963042;28;20061;-85
2023/08/16 04:52:38;;;;;;;1.60;1.50;;;13.70;99.90;;;;;;4958018;28;20046;-84
2023/08/16 04:55:08;;;;;;;1.50;1.40;;;13.50;99.90;;;;;;4981167;28;20046;-84
2023/08/16 04:57:34;;;;;;;1.50;1.40;;;13.70;99.90;;;;;;4974711;28;20054;-84
2023/08/16 05:00:00;;;;;;;1.30;1.30;;;13.90;99.90;;;;;;4972838;28;20416;-86
2023/08/16 05:02:26;;;;;;;1.30;1.30;;;13.80;99.90;;;;;;4979036;28;20434;-82
2023/08/16 05:04:51;;;;;;;1.30;1.30;;;13.90;99.90;;;;;;4981562;28;20042;-82
2023/08/16 05:07:19;;;;;;;1.52;1.42;;;13.90;99.90;;;;;;4975464;28;20403;-84
2023/08/16 05:09:45;;;;;;;1.42;1.38;;;14.20;99.90;;;;;;4977908;28;20043;-84
2023/08/16 05:12:10;;;;;;;1.20;1.20;;;15.20;99.90;;;;;;4974683;28;20046;-85
2023/08/16 05:14:36;;;;;;;1.15;1.15;;;15.90;99.90;;;;;;4962181;28;20133;-85
2023/08/16 05:17:02;;;;;;;1.10;1.10;;;15.70;99.90;;;;;;4979433;28;20042;-85
2023/08/16 05:19:28;;;;;;;1.00;1.00;;;18.00;99.90;;;;;;4974647;28;20077;-86
2023/08/16 05:21:53;;;;;;;0.85;0.85;;;19.00;99.90;;;;;;4976780;28;20551;-85
2023/08/16 05:24:19;;;;;;;0.90;0.90;;;20.00;99.90;;;;;;4975819;28;20555;-84
2023/08/16 05:26:44;;;;;;;0.70;0.70;;;20.80;99.90;;;;;;4974120;28;20055;-85
2023/08/16 05:29:10;;;;;;;0.70;0.70;;;21.60;99.90;;;;;;4979021;28;20054;-86
2023/08/16 05:31:36;;;;;;;0.70;0.70;;;22.10;99.90;;;;;;4977687;28;20055;-84
2023/08/16 05:34:02;;;;;;;1.10;1.10;;;19.80;99.90;;;;;;4979810;28;20042;-85
2023/08/16 05:36:29;;;;;;;1.30;1.30;;;18.70;99.90;;;;;;4975477;28;20049;-85
2023/08/16 05:38:55;;;;;;;1.30;1.30;;;18.70;99.90;;;;;;4973030;28;20101;-85
2023/08/16 05:41:22;;;;;;;1.65;1.55;;;20.50;99.90;;;;;;4977662;28;20047;-86
2023/08/16 05:43:47;;;;;;;1.70;1.60;;;19.20;99.90;;;;;;4975211;28;20074;-84
2023/08/16 05:46:13;;;;;;;2.22;2.13;;;18.50;99.90;;;;;;4973608;28;20078;-85
2023/08/16 05:48:39;;;;;;;1.98;1.88;;;18.00;99.90;;;;;;4978412;28;20050;-84
2023/08/16 05:51:04;;;;;;;1.92;1.83;;;17.60;99.90;;;;;;4976883;28;20051;-84
2023/08/16 05:53:30;;;;;;;1.80;1.70;;;17.30;99.90;;;;;;4977336;28;20556;-86
2023/08/16 05:55:56;;;;;;;1.95;1.85;;;17.20;99.90;;;;;;4974253;28;20046;-85
2023/08/16 05:58:21;;;;;;;1.80;1.70;;;16.90;99.90;;;;;;4997773;28;20058;-86
2023/08/16 06:00:47;;;;;;;1.63;1.52;;;16.90;99.90;;;;;;4979452;28;20815;-86
2023/08/16 06:03:14;;;;;;;1.50;1.40;;;16.80;99.90;;;;;;4961538;28;20054;-86
2023/08/16 06:05:40;;;;;;;1.20;1.20;;;17.30;99.90;;;;;;4968901;28;20093;-86
2023/08/16 06:08:08;;;;;;;1.10;1.10;;;17.60;99.90;;;;;;4959635;28;20439;-87
2023/08/16 06:10:34;;;;;;;1.00;1.00;;;17.50;99.90;;;;;;4981175;28;20522;-85
2023/08/16 06:12:59;;;;;;;0.93;0.93;;;17.80;99.90;;;;;;4960709;28;20046;-87
2023/08/16 06:15:25;;;;;;;0.85;0.85;;;18.00;99.90;;;;;;4983727;28;20034;-88
2023/08/16 06:17:50;;;;;;;0.90;0.90;;;18.10;99.90;;;;;;4965905;28;20066;-88
2023/08/16 06:20:16;;;;;;;0.90;0.90;;;17.80;99.90;;;;;;4983762;28;21566;-88
2023/08/16 06:22:42;;;;;;;0.90;0.90;;;17.80;99.90;;;;;;4971049;28;20066;-90
2023/08/16 06:25:09;;;;;;;0.80;0.80;;;17.90;99.90;;;;;;4960558;28;20526;-87
2023/08/16 06:27:35;;;;;;;0.80;0.80;;;18.20;99.90;;;;;;4962254;28;20477;-87
2023/08/16 06:30:01;;;;;;;0.90;0.90;;;18.40;99.90;;;;;;4982662;28;20451;-88
2023/08/16 06:32:27;;;;;;;0.80;0.80;;;18.50;99.90;;;;;;4980934;28;20404;-87
2023/08/16 06:34:52;;;;;;;1.00;1.00;;;18.50;99.90;;;;;;4964373;28;20042;-84
2023/08/16 06:37:18;;;;;;;1.02;1.02;;;18.50;99.90;;;;;;4977806;28;20556;-85
2023/08/16 06:39:44;;;;;;;0.98;0.98;;;18.50;99.90;;;;;;4978217;28;20803;-86
2023/08/16 06:42:09;;;;;;;1.00;1.00;;;18.30;99.90;;;;;;4982039;28;20058;-87
2023/08/16 06:44:36;;;;;;;1.20;1.20;;;18.30;99.90;;;;;;4981866;28;20042;-91
2023/08/16 06:47:02;;;;;;;1.20;1.20;;;18.20;99.90;;;;;;4968611;28;20054;-87
2023/08/16 06:49:27;;;;;;;1.20;1.20;;;18.10;99.90;;;;;;4980318;28;20791;-91
2023/08/16 06:51:53;;;;;;;1.20;1.20;;;17.90;99.90;;;;;;4963694;28;20039;-89
2023/08/16 06:54:19;;;;;;;1.17;1.17;;;18.10;99.90;;;;;;4981264;28;20042;-89
2023/08/16 06:56:44;;;;;;;1.20;1.20;;;18.20;99.90;;;;;;4979116;28;20047;-87
2023/08/16 06:59:10;;;;;;;1.17;1.17;;;18.00;99.90;;;;;;4959670;28;20053;-88
2023/08/16 07:01:36;;;;;;;1.10;1.10;;;18.10;99.90;;;;;;4962585;28;20042;-87
2023/08/16 07:04:02;;;;;;;1.10;1.10;;;18.20;99.90;;;;;;4977172;28;20122;-86
2023/08/16 07:06:31;;;;;;;1.13;1.13;;;18.00;99.90;;;;;;4961774;28;20336;-87
2023/08/16 07:08:58;;;;;;;1.05;1.05;;;18.10;99.90;;;;;;4961175;28;20070;-85
2023/08/16 07:11:24;;;;;;;1.10;1.10;;;18.10;99.90;;;;;;4979521;28;20133;-86
2023/08/16 07:13:50;;;;;;;1.00;1.00;;;18.20;99.90;;;;;;4976880;28;20056;-86
2023/08/16 07:16:17;;;;;;;0.90;0.90;;;18.60;99.90;;;;;;4960928;28;20096;-89
2023/08/16 07:18:44;;;;;;;1.00;1.00;;;18.50;99.90;;;;;;4960693;28;20530;-87
2023/08/16 07:21:10;;;;;;;1.00;1.00;;;18.50;99.90;;;;;;4975694;28;20739;-87
2023/08/16 07:23:36;;;;;;;1.20;1.20;;;18.70;99.90;;;;;;4965221;28;20038;-91
2023/08/16 07:26:03;;;;;;;1.45;1.40;;;18.60;99.90;;;;;;4960507;28;20562;-90
2023/08/16 07:28:50;;;;;;;1.70;1.60;;;18.60;99.90;;;;;;4967234;28;20101;-95
2023/08/16 07:31:16;;;;;;;1.80;1.70;;;18.70;99.90;;;;;;4984660;28;20042;-93
2023/08/16 07:33:41;;;;;;;1.88;1.77;;;18.80;99.90;;;;;;4963615;28;20043;-92
2023/08/16 07:36:07;;;;;;;2.05;1.95;;;18.60;99.90;;;;;;4964200;28;20077;-89
2023/08/16 07:38:36;;;;;;;2.55;2.45;;;18.70;99.90;;;;;;4963153;28;20043;-89
2023/08/16 07:41:01;;;;;;;1.70;1.60;;;18.70;99.90;;;;;;4961721;28;20085;-91
2023/08/16 07:43:30;;;;;;;1.60;1.50;;;18.80;99.90;;;;;;4962289;28;20074;-90
2023/08/16 07:45:59;;;;;;;1.52;1.42;;;19.00;99.90;;;;;;4960430;28;20444;-89
2023/08/16 07:48:24;;;;;;;1.25;1.25;;;19.30;99.90;;;;;;4960267;28;20051;-89
2023/08/16 07:50:50;;;;;;;1.20;1.20;;;19.30;99.90;;;;;;4978984;28;20057;-89
2023/08/16 07:53:17;;;;;;;1.23;1.23;;;19.50;99.90;;;;;;4983368;28;20051;-90
2023/08/16 07:55:42;;;;;;;1.10;1.10;;;19.50;99.90;;;;;;4961841;28;20050;-89
2023/08/16 07:58:08;;;;;;;1.20;1.20;;;19.70;99.90;;;;;;4959309;28;20133;-89
2023/08/16 08:00:34;;;;;;;1.08;1.08;;;19.50;99.90;;;;;;4973747;28;20051;-90
2023/08/16 08:02:59;;;;;;;1.00;1.00;;;19.50;99.90;;;;;;4960231;28;20050;-87
2023/08/16 08:05:25;;;;;;;1.00;1.00;;;19.60;99.90;;;;;;4999895;28;20057;-89
2023/08/16 08:07:53;;;;;;;0.90;0.90;;;19.40;99.90;;;;;;4961123;28;20046;-87
2023/08/16 08:10:21;;;;;;;0.90;0.90;;;19.60;99.90;;;;;;4962780;28;20075;-93
2023/08/16 08:12:50;;;;;;;0.90;0.90;;;20.20;99.90;;;;;;4965845;28;20240;-91
2023/08/16 08:15:21;;;;;;;0.80;0.80;;;20.30;99.90;;;;;;4963474;28;20057;-93
2023/08/16 08:17:47;;;;;;;0.75;0.75;;;20.40;99.90;;;;;;4983741;28;20081;-92
2023/08/16 08:20:16;;;;;;;0.70;0.70;;;20.60;99.90;;;;;;4962965;28;20504;-90
2023/08/16 08:22:42;;;;;;;0.70;0.70;;;21.00;99.90;;;;;;4972605;28;20451;-92
2023/08/16 08:25:08;;;;;;;0.60;0.60;;;21.10;99.90;;;;;;4961123;28;20052;-88
2023/08/16 08:27:34;;;;;;;0.60;0.60;;;21.20;99.90;;;;;;4977287;28;20042;-87
2023/08/16 08:30:01;;;;;;;0.60;0.60;;;21.30;99.90;;;;;;4977066;28;20043;-87
2023/08/16 08:32:27;;;;;;;0.70;0.70;;;21.30;99.90;;;;;;4964772;28;20555;-88
2023/08/16 08:35:04;;;;;;;0.50;0.50;;;21.60;99.90;;;;;;4960699;28;20042;-89
2023/08/16 08:37:31;;;;;;;0.52;0.52;;;21.30;99.90;;;;;;4965705;28;20129;-89
2023/08/16 08:39:57;;;;;;;0.50;0.50;;;21.90;99.90;;;;;;4964522;28;20138;-89
2023/08/16 08:42:23;;;;;;;0.55;0.55;;;21.60;99.90;;;;;;4961135;28;20575;-89
2023/08/16 08:44:50;;;;;;;0.50;0.50;;;21.90;99.90;;;;;;4964874;28;20138;-88
2023/08/16 08:47:16;;;;;;;0.60;0.60;;;21.30;99.90;;;;;;4977966;28;20819;-88
2023/08/16 08:49:42;;;;;;;0.60;0.60;;;21.70;99.90;;;;;;4964341;28;20050;-91
2023/08/16 08:52:09;;;;;;;0.50;0.50;;;22.20;99.90;;;;;;4957815;28;20134;-88
2023/08/16 08:54:35;;;;;;;0.52;0.52;;;22.20;99.90;;;;;;4975700;28;20148;-91
2023/08/16 08:57:03;;;;;;;0.50;0.50;;;22.10;99.90;;;;;;4978165;28;20192;-90
2023/08/16 08:59:33;;;;;;;0.60;0.60;;;22.10;99.90;;;;;;4956570;28;20543;-88
2023/08/16 09:01:59;;;;;;;0.50;0.50;;;22.10;99.90;;;;;;4975177;28;20053;-88
2023/08/16 09:04:30;;;;;;;0.60;0.60;;;22.10;99.90;;;;;;4958017;28;20042;-89
2023/08/16 09:07:03;;;;;;;0.60;0.60;;;22.10;99.90;;;;;;4960979;28;20049;-91
2023/08/16 09:09:32;;;;;;;0.55;0.55;;;22.40;99.90;;;;;;4958065;28;20105;-88
2023/08/16 09:12:01;;;;;;;0.55;0.55;;;22.60;99.90;;;;;;4954073;28;20047;-87
2023/08/16 09:14:27;;;;;;;0.60;0.60;;;23.00;99.90;;;;;;4959621;28;20057;-87
2023/08/16 09:16:53;;;;;;;0.60;0.60;;;22.80;99.90;;;;;;4977511;28;20061;-87
2023/08/16 09:19:18;;;;;;;0.30;0.30;;;23.00;99.90;;;;;;4977441;28;20050;-89
2023/08/16 09:21:53;;;;;;;0.60;0.60;;;22.40;99.90;;;;;;4961396;28;20080;-88
2023/08/16 09:24:23;;;;;;;0.40;0.40;;;23.00;99.90;;;;;;4976493;28;20499;-90
2023/08/16 09:26:52;;;;;;;0.52;0.52;;;23.10;99.90;;;;;;4980878;28;20050;-95
2023/08/16 09:29:18;;;;;;;0.60;0.60;;;23.00;99.90;;;;;;4975453;28;20083;-88
2023/08/16 09:31:47;;;;;;;0.30;0.30;;;23.00;99.90;;;;;;4975572;28;20077;-92
2023/08/16 09:34:15;;;;;;;0.70;0.70;;;22.50;99.90;;;;;;4961976;28;20385;-89
2023/08/16 09:36:47;;;;;;;0.30;0.30;;;22.50;99.90;;;;;;4962580;28;20476;-89
2023/08/16 09:39:13;;;;;;;0.63;0.63;;;23.00;99.90;;;;;;4957373;28;20486;-88
2023/08/16 09:41:49;;;;;;;0.30;0.30;;;23.30;99.90;;;;;;4957142;28;20133;-86
2023/08/16 09:44:15;;;;;;;0.70;0.70;;;23.50;99.90;;;;;;4956770;28;20045;-89
2023/08/16 09:46:45;;;;;;;0.30;0.30;;;23.80;99.90;;;;;;4964084;28;20046;-88
2023/08/16 09:49:13;;;;;;;0.30;0.30;;;23.30;99.90;;;;;;4964095;28;20313;-89
2023/08/16 09:51:43;;;;;;;0.30;0.30;;;22.80;99.90;;;;;;4981832;28;20462;-91
2023/08/16 09:54:13;;;;;;;0.40;0.40;;;23.30;99.90;;;;;;4965200;28;20054;-89
2023/08/16 09:56:43;;;;;;;0.40;0.40;;;23.40;99.90;;;;;;4965023;28;20069;-87
2023/08/16 09:59:11;;;;;;;0.32;0.32;;;23.20;99.90;;;;;;4962570;28;20672;-87
2023/08/16 10:01:37;;;;;;;0.40;0.40;;;23.40;99.90;;;;;;4963502;28;20052;-87
2023/08/16 10:04:09;;;;;;;0.30;0.30;;;24.00;99.90;;;;;;4979241;28;20054;-92
2023/08/16 10:06:35;;;;;;;0.30;0.30;;;24.00;99.90;;;;;;4966175;28;20160;-88
2023/08/16 10:09:09;;;;;;;0.30;0.30;;;24.00;99.90;;;;;;4965028;28;20138;-92
2023/08/16 10:11:36;;;;;;;0.38;0.38;;;24.30;99.90;;;;;;4960059;28;20050;-86
2023/08/16 10:14:04;;;;;;;0.32;0.32;;;23.50;99.90;;;;;;4984671;28;20058;-91
2023/08/16 10:16:55;;;;;;;0.30;0.30;;;23.80;99.90;;;;;;4977175;28;20105;-94
2023/08/16 10:19:28;;;;;;;0.30;0.30;;;23.60;99.90;;;;;;4899416;29;20051;-94
2023/08/16 10:21:58;;;;;;;0.30;0.30;;;24.10;99.90;;;;;;4893911;29;20056;-90
2023/08/16 10:24:26;;;;;;;0.30;0.30;;;23.80;99.90;;;;;;4963790;28;20082;-89
2023/08/16 10:26:54;;;;;;;0.30;0.30;;;24.00;99.90;;;;;;4963682;28;20050;-89
2023/08/16 10:29:26;;;;;;;0.30;0.30;;;24.40;99.90;;;;;;4965365;28;20046;-93
2023/08/16 10:32:12;;;;;;;;;;;;;;;;;;;;;
2023/08/16 10:35:05;;;;;;;;;;;;;;;;;;;;;
2023/08/16 10:37:34;;;;;;;0.30;0.30;;;24.70;99.90;;;;;;4988549;28;20112;-91
2023/08/16 10:40:20;;;;;;;0.30;0.30;;;24.60;99.90;;;;;;4980383;28;20046;-95
2023/08/16 10:42:57;;;;;;;0.30;0.30;;;24.50;99.90;;;;;;4965476;28;20137;-91
2023/08/16 10:45:27;;;;;;;0.40;0.40;;;24.70;99.90;;;;;;4982867;28;20136;-88
2023/08/16 10:47:54;;;;;;;0.30;0.30;;;24.20;99.90;;;;;;4964994;28;20055;-88
2023/08/16 10:50:20;;;;;;;0.30;0.30;;;24.70;99.90;;;;;;4982230;28;20054;-88
2023/08/16 10:52:46;;;;;;;0.30;0.30;;;24.70;99.90;;;;;;4978496;28;20209;-90
2023/08/16 10:55:46;;;;;;;0.30;0.30;;;24.30;99.90;;;;;;4966549;28;20578;-94
2023/08/16 10:58:25;;;;;;;0.30;0.30;;;24.30;99.90;;;;;;4979830;28;20385;-89
2023/08/16 11:01:07;;;;;;;0.30;0.30;;;24.20;99.90;;;;;;4967674;28;20077;-88
2023/08/16 11:03:39;;;;;;;0.30;0.30;;;24.30;99.90;;;;;;4962483;28;20050;-92
2023/08/16 11:06:10;;;;;;;0.32;0.32;;;24.00;99.90;;;;;;4964105;28;20085;-89
2023/08/16 11:08:40;;;;;;;0.38;0.38;;;24.40;99.90;;;;;;4965049;28;20084;-90
2023/08/16 11:11:13;;;;;;;0.30;0.30;;;24.70;99.90;;;;;;4963503;28;20628;-90
2023/08/16 11:13:42;;;;;;;0.38;0.38;;;24.40;99.90;;;;;;4966170;28;20089;-89
2023/08/16 11:16:10;;;;;;;0.50;0.50;;;24.20;99.90;;;;;;4961350;28;20137;-89
2023/08/16 11:18:38;;;;;;;0.30;0.30;;;24.30;99.90;;;;;;4962734;28;20396;-90
2023/08/16 11:21:07;;;;;;;0.40;0.40;;;23.90;99.90;;;;;;4966678;28;20137;-89
2023/08/16 11:23:37;;;;;;;0.40;0.40;;;23.90;99.90;;;;;;4981441;28;20113;-90
2023/08/16 11:26:04;;;;;;;0.30;0.30;;;24.00;99.90;;;;;;4962029;28;20393;-89
2023/08/16 11:28:31;;;;;;;0.30;0.30;;;23.80;99.90;;;;;;4977023;28;20148;-88
2023/08/16 11:30:59;;;;;;;0.30;0.30;;;23.90;99.90;;;;;;4957919;28;20042;-90
2023/08/16 11:33:33;;;;;;;0.30;0.30;;;23.90;99.90;;;;;;4962636;28;20469;-90
2023/08/16 11:36:04;;;;;;;0.30;0.30;;;24.20;99.90;;;;;;4965870;28;20108;-88
2023/08/16 11:38:30;;;;;;;0.35;0.35;;;24.20;99.90;;;;;;4982155;28;20504;-90
2023/08/16 11:40:57;;;;;;;0.30;0.30;;;24.40;99.90;;;;;;4967352;28;20054;-86
2023/08/16 11:43:33;;;;;;;0.30;0.30;;;24.40;99.90;;;;;;4967367;28;20547;-90
2023/08/16 11:46:13;;;;;;;0.30;0.30;;;24.70;99.90;;;;;;4962912;28;20093;-95
2023/08/16 11:48:41;;;;;;;0.30;0.30;;;23.90;99.90;;;;;;4980784;28;20389;-87
2023/08/16 11:51:11;;;;;;;0.30;0.30;;;24.30;99.90;;;;;;4980584;28;20046;-88
2023/08/16 11:53:37;;;;;;;0.30;0.30;;;25.10;99.90;;;;;;4967641;28;20069;-88
2023/08/16 11:56:12;;;;;;;0.40;0.40;;;25.50;99.90;;;;;;4981201;28;20089;-93
2023/08/16 11:59:29;;;;;;;0.30;0.30;;;25.60;99.90;;;;;;4969825;28;20050;-91
2023/08/16 12:01:55;;;;;;;0.30;0.30;;;25.30;99.90;;;;;;4959091;28;20115;-89
2023/08/16 12:04:32;;;;;;;0.30;0.30;;;25.90;99.90;;;;;;4961530;28;20061;-94
2023/08/16 12:07:39;;;;;;;0.30;0.30;;;26.30;99.90;;;;;;4967996;28;20051;-90
2023/08/16 12:10:27;;;;;;;0.30;0.30;;;26.00;99.90;;;;;;4945932;28;20698;-92
2023/08/16 12:13:20;;;;;;;0.30;0.30;;;26.10;99.90;;;;;;4966417;28;20050;-92
2023/08/16 12:15:46;;;;;;;0.40;0.40;;;25.10;99.90;;;;;;4977669;28;20058;-88
2023/08/16 12:18:14;;;;;;;0.30;0.30;;;25.40;99.90;;;;;;4968277;28;20037;-92
2023/08/16 12:20:43;;;;;;;0.40;0.40;;;25.80;99.90;;;;;;4959882;28;20046;-91
2023/08/16 12:23:23;;;;;;;0.32;0.32;;;25.10;99.90;;;;;;4984207;28;20053;-94
2023/08/16 12:25:49;;;;;;;0.30;0.30;;;25.40;99.90;;;;;;4969011;28;20035;-91
2023/08/16 12:28:23;;;;;;;0.40;0.40;;;25.30;99.90;;;;;;4960670;28;20125;-88
2023/08/16 12:30:49;;;;;;;0.30;0.30;;;25.30;99.90;;;;;;4979294;28;20046;-92
2023/08/16 12:33:20;;;;;;;0.30;0.30;;;24.70;99.90;;;;;;4964665;28;20047;-90
2023/08/16 12:35:52;;;;;;;0.38;0.38;;;24.80;99.90;;;;;;4964541;28;20113;-91
2023/08/16 12:38:20;;;;;;;0.38;0.38;;;24.90;99.90;;;;;;4963179;28;20046;-90
2023/08/16 12:40:46;;;;;;;0.30;0.30;;;25.60;99.90;;;;;;4964596;28;20054;-92
2023/08/16 12:43:40;;;;;;;;;;;;;;;;;;;;;
2023/08/16 12:46:13;;;;;;;0.30;0.30;;;25.30;99.90;;;;;;4976240;28;20129;-89
2023/08/16 12:48:38;;;;;;;0.40;0.40;;;25.90;99.90;;;;;;4975012;28;20129;-86
2023/08/16 12:51:05;;;;;;;0.30;0.30;;;25.80;99.90;;;;;;4961134;28;20568;-87
2023/08/16 12:53:45;;;;;;;0.30;0.30;;;26.30;99.90;;;;;;4976099;28;20520;-92
2023/08/16 12:56:26;;;;;;;0.30;0.30;;;25.80;99.90;;;;;;4976936;28;20049;-88